ADDS METAR Data INFO
IDs: Format: Raw Decoded Include TAF

Data at: 1111 UTC 18 Oct 2017

KCZT 181055Z AUTO 00000KT 10SM CLR 08/07 A3012 RMK AO2
KCZT 181035Z AUTO 00000KT 10SM CLR 08/07 A3012 RMK AO2
KCZT 181015Z AUTO 00000KT 10SM CLR 08/07 A3012 RMK AO2
KCZT 180955Z AUTO 00000KT 10SM CLR 08/07 A3012 RMK AO2
KCZT 180935Z AUTO 00000KT 10SM CLR 08/07 A3012 RMK AO2
KCZT 180915Z AUTO 00000KT 10SM CLR 08/07 A3013 RMK AO2
KCZT 180855Z AUTO 00000KT 10SM CLR 08/07 A3013 RMK AO2
KCZT 180835Z AUTO 00000KT 10SM CLR 08/07 A3014 RMK AO2
KCZT 180815Z AUTO 00000KT 10SM CLR 08/07 A3014 RMK AO2
KCZT 180755Z AUTO 00000KT 10SM CLR 09/07 A3014 RMK AO2
KCZT 180735Z AUTO 00000KT 10SM CLR 09/08 A3014 RMK AO2
KCZT 180715Z AUTO 00000KT 10SM CLR 10/08 A3014 RMK AO2
KCZT 180655Z AUTO 00000KT 10SM CLR 10/08 A3015 RMK AO2
KCZT 180635Z AUTO 00000KT 10SM CLR 10/08 A3014 RMK AO2
KCZT 180615Z AUTO 10003KT 10SM CLR 11/08 A3015 RMK AO2
KCZT 180555Z AUTO 00000KT 10SM CLR 11/09 A3015 RMK AO2
KCZT 180535Z AUTO 18003KT 10SM CLR 11/09 A3015 RMK AO2
KCZT 180515Z AUTO 00000KT 10SM CLR 11/09 A3016 RMK AO2
KCZT 180455Z AUTO 00000KT 10SM CLR 12/09 A3017 RMK AO2
KCZT 180435Z AUTO 00000KT 10SM CLR 12/09 A3017 RMK AO2
KCZT 180415Z AUTO 18004KT 10SM CLR 12/09 A3017 RMK AO2
KCZT 180355Z AUTO 17003KT 10SM CLR 13/10 A3017 RMK AO2
KCZT 180335Z AUTO 00000KT 10SM CLR 13/10 A3017 RMK AO2
KCZT 180315Z AUTO 16004KT 7SM CLR 13/10 A3016 RMK AO2
KCZT 180255Z AUTO 17003KT 10SM CLR 13/10 A3015 RMK AO2
KCZT 180235Z AUTO 16003KT 10SM CLR 15/11 A3015 RMK AO2
KCZT 180215Z AUTO 00000KT 10SM CLR 15/10 A3015 RMK AO2
KCZT 180155Z AUTO 14004KT 10SM CLR 15/11 A3015 RMK AO2
KCZT 180135Z AUTO 15003KT 10SM CLR 16/11 A3015 RMK AO2
KCZT 180115Z AUTO 13003KT 10SM CLR 16/11 A3014 RMK AO2
KCZT 180055Z AUTO 13003KT 10SM CLR 17/11 A3014 RMK AO2
KCZT 180035Z AUTO 11004KT 10SM CLR 18/11 A3014 RMK AO2
KCZT 180015Z AUTO 12003KT 10SM CLR 20/11 A3014 RMK AO2
KCZT 172355Z AUTO 11003KT 10SM CLR 23/08 A3014 RMK AO2
KCZT 172335Z AUTO 00000KT 10SM CLR 25/07 A3013 RMK AO2
KCZT 172315Z AUTO 00000KT 10SM CLR 25/05 A3013 RMK AO2
KCZT 172255Z AUTO 00000KT 10SM CLR 26/06 A3013 RMK AO2
KCZT 172235Z AUTO 13003KT 10SM CLR 26/05 A3014 RMK AO2
KCZT 172215Z AUTO 00000KT 10SM CLR 26/05 A3014 RMK AO2
KCZT 172155Z AUTO 18004KT 10SM CLR 26/06 A3014 RMK AO2
KCZT 172135Z AUTO 00000KT 10SM CLR 26/05 A3015 RMK AO2
KCZT 172115Z AUTO 04003KT 10SM CLR 26/06 A3015 RMK AO2
KCZT 172055Z AUTO 00000KT 10SM CLR 25/05 A3015 RMK AO2
KCZT 172035Z AUTO 00000KT 10SM CLR 25/06 A3016 RMK AO2
KCZT 172015Z AUTO 00000KT 10SM CLR 25/05 A3017 RMK AO2
KCZT 171955Z AUTO 00000KT 10SM CLR 25/06 A3019 RMK AO2
KCZT 171935Z AUTO 00000KT 10SM CLR 24/05 A3020 RMK AO2
KCZT 171915Z AUTO 00000KT 10SM CLR 23/05 A3021 RMK AO2
KCZT 171855Z AUTO 00000KT 10SM CLR 23/05 A3022 RMK AO2
KCZT 171835Z AUTO 00000KT 10SM CLR 23/05 A3024 RMK AO2
KCZT 171815Z AUTO 00000KT 10SM CLR 23/05 A3025 RMK AO2
KCZT 171755Z AUTO 00000KT 10SM CLR 23/06 A3027 RMK AO2
KCZT 171735Z AUTO 03003KT 10SM CLR 22/06 A3027 RMK AO2
KCZT 171715Z AUTO 16004KT 10SM CLR 22/06 A3029 RMK AO2
KCZT 171655Z AUTO 13004KT 10SM CLR 21/07 A3030 RMK AO2
KCZT 171635Z AUTO 14004KT 10SM CLR 21/07 A3030 RMK AO2
KCZT 171615Z AUTO 11004KT 10SM CLR 20/07 A3030 RMK AO2
KCZT 171555Z AUTO 15004KT 10SM CLR 18/07 A3030 RMK AO2
KCZT 171535Z AUTO 12003KT 10SM CLR 17/07 A3031 RMK AO2
KCZT 171515Z AUTO 13006KT 10SM CLR 17/07 A3031 RMK AO2
KCZT 171455Z AUTO 13004KT 10SM CLR 16/06 A3031 RMK AO2
KCZT 171435Z AUTO 00000KT 10SM CLR 15/06 A3030 RMK AO2
KCZT 171415Z AUTO 00000KT 10SM CLR 13/07 A3030 RMK AO2
KCZT 171355Z AUTO 00000KT 10SM CLR 12/07 A3029 RMK AO2
KCZT 171335Z AUTO 00000KT 10SM CLR 10/08 A3028 RMK AO2
KCZT 171315Z AUTO 00000KT 10SM CLR 07/06 A3028 RMK AO2
KCZT 171255Z AUTO 00000KT 10SM CLR 07/06 A3027 RMK AO2
KCZT 171235Z AUTO 00000KT 10SM CLR 07/06 A3027 RMK AO2
KCZT 171215Z AUTO 00000KT 10SM CLR 07/06 A3026 RMK AO2
KCZT 171155Z AUTO 00000KT 10SM CLR 08/06 A3026 RMK AO2
KCZT 171135Z AUTO 00000KT 10SM CLR 08/07 A3025 RMK AO2
KCZT 171115Z AUTO 00000KT 10SM CLR 08/07 A3025 RMK AO2
KCZT 171055Z AUTO 00000KT 10SM CLR 08/07 A3025 RMK AO2
KCZT 171035Z AUTO 00000KT 10SM CLR 08/07 A3025 RMK AO2
KCZT 171015Z AUTO 00000KT 10SM CLR 07/07 A3024 RMK AO2
KCZT 170955Z AUTO 00000KT 10SM CLR 08/07 A3024 RMK AO2
KCZT 170935Z AUTO 00000KT 10SM CLR 08/07 A3024 RMK AO2
KCZT 170915Z AUTO 00000KT 10SM CLR 08/07 A3025 RMK AO2
KCZT 170855Z AUTO 00000KT 10SM CLR 08/07 A3025 RMK AO2
KCZT 170835Z AUTO 00000KT 10SM CLR 08/07 A3025 RMK AO2
KCZT 170815Z AUTO 00000KT 10SM CLR 10/07 A3025 RMK AO2
KCZT 170755Z AUTO 00000KT 10SM CLR 10/07 A3026 RMK AO2
KCZT 170735Z AUTO 00000KT 10SM CLR 11/07 A3026 RMK AO2
KCZT 170715Z AUTO 30003KT 10SM CLR 11/07 A3026 RMK AO2
KCZT 170655Z AUTO 31003KT 10SM CLR 11/07 A3026 RMK AO2
KCZT 170635Z AUTO 00000KT 10SM CLR 11/07 A3026 RMK AO2
KCZT 170615Z AUTO 00000KT 10SM CLR 11/08 A3026 RMK AO2
KCZT 170555Z AUTO 00000KT 10SM CLR 11/08 A3026 RMK AO2
KCZT 170535Z AUTO 00000KT 10SM CLR 12/07 A3027 RMK AO2
KCZT 170515Z AUTO 00000KT 10SM CLR 13/07 A3027 RMK AO2
KCZT 170455Z AUTO 27003KT 10SM CLR 13/07 A3027 RMK AO2
KCZT 170435Z AUTO 00000KT 10SM CLR 14/07 A3027 RMK AO2
KCZT 170415Z AUTO 00000KT 10SM CLR 15/07 A3027 RMK AO2
KCZT 170355Z AUTO 00000KT 10SM CLR 15/07 A3027 RMK AO2
KCZT 170335Z AUTO 00000KT 10SM CLR 14/07 A3027 RMK AO2
KCZT 170315Z AUTO 26004KT 10SM CLR 15/07 A3027 RMK AO2
KCZT 170255Z AUTO 25004KT 10SM CLR 15/07 A3026 RMK AO2
KCZT 170235Z AUTO 27004KT 10SM CLR 16/07 A3026 RMK AO2
KCZT 170215Z AUTO 27004KT 10SM CLR 16/07 A3026 RMK AO2
KCZT 170155Z AUTO 26004KT 10SM CLR 16/07 A3026 RMK AO2
KCZT 170135Z AUTO 25003KT 10SM CLR 15/09 A3025 RMK AO2
KCZT 170115Z AUTO 25003KT 10SM CLR 15/09 A3025 RMK AO2
KCZT 170055Z AUTO 00000KT 10SM CLR 16/10 A3024 RMK AO2
KCZT 170035Z AUTO 00000KT 10SM CLR 17/08 A3024 RMK AO2
KCZT 170015Z AUTO 00000KT 10SM CLR 20/06 A3024 RMK AO2
KCZT 162355Z AUTO 00000KT 10SM CLR 22/05 A3024 RMK AO2
KCZT 162335Z AUTO 36004KT 10SM CLR 23/04 A3023 RMK AO2
KCZT 162315Z AUTO 36004KT 10SM CLR 23/03 A3023 RMK AO2